sensor_id;sensor_type;location;lat;lon;timestamp;pressure;altitude;pressure_sealevel;temperature
82780;BMP280;72511;45.120;20.720;2023-11-25T00:04:10;98625.50;;;5.16
82780;BMP280;72511;45.120;20.720;2023-11-25T00:14:12;98626.47;;;5.22
82780;BMP280;72511;45.120;20.720;2023-11-25T00:24:13;98591.38;;;5.17
82780;BMP280;72511;45.120;20.720;2023-11-25T00:34:15;98639.38;;;5.11
82780;BMP280;72511;45.120;20.720;2023-11-25T00:44:16;98669.53;;;4.99
82780;BMP280;72511;45.120;20.720;2023-11-25T00:54:17;98670.28;;;4.84
82780;BMP280;72511;45.120;20.720;2023-11-25T01:04:19;98685.94;;;4.85
82780;BMP280;72511;45.120;20.720;2023-11-25T01:14:20;98686.00;;;4.82
82780;BMP280;72511;45.120;20.720;2023-11-25T01:24:22;98690.53;;;4.85
82780;BMP280;72511;45.120;20.720;2023-11-25T01:34:24;98690.34;;;4.92
82780;BMP280;72511;45.120;20.720;2023-11-25T01:44:26;98668.84;;;4.95
82780;BMP280;72511;45.120;20.720;2023-11-25T01:54:27;98662.06;;;5.07
82780;BMP280;72511;45.120;20.720;2023-11-25T02:04:32;98660.00;;;5.14
82780;BMP280;72511;45.120;20.720;2023-11-25T02:14:33;98640.88;;;5.28
82780;BMP280;72511;45.120;20.720;2023-11-25T02:24:34;98610.53;;;5.31
82780;BMP280;72511;45.120;20.720;2023-11-25T02:34:36;98614.72;;;5.32
82780;BMP280;72511;45.120;20.720;2023-11-25T02:44:37;98608.22;;;5.01
82780;BMP280;72511;45.120;20.720;2023-11-25T02:54:38;98589.44;;;5.01
82780;BMP280;72511;45.120;20.720;2023-11-25T03:04:40;98583.56;;;5.06
82780;BMP280;72511;45.120;20.720;2023-11-25T03:14:46;98581.72;;;5.03
82780;BMP280;72511;45.120;20.720;2023-11-25T03:24:47;98568.91;;;5.11
82780;BMP280;72511;45.120;20.720;2023-11-25T03:34:49;98547.94;;;5.22
82780;BMP280;72511;45.120;20.720;2023-11-25T03:44:51;98550.00;;;5.18
82780;BMP280;72511;45.120;20.720;2023-11-25T03:54:52;98565.84;;;4.96
82780;BMP280;72511;45.120;20.720;2023-11-25T04:04:54;98593.00;;;4.82
82780;BMP280;72511;45.120;20.720;2023-11-25T04:14:55;98609.56;;;4.77
82780;BMP280;72511;45.120;20.720;2023-11-25T04:24:57;98622.53;;;4.79
82780;BMP280;72511;45.120;20.720;2023-11-25T04:34:58;98607.22;;;4.79
82780;BMP280;72511;45.120;20.720;2023-11-25T04:44:59;98618.63;;;4.99
82780;BMP280;72511;45.120;20.720;2023-11-25T04:55:01;98610.66;;;4.96
82780;BMP280;72511;45.120;20.720;2023-11-25T05:05:04;98596.97;;;4.90
82780;BMP280;72511;45.120;20.720;2023-11-25T05:15:06;98617.78;;;5.02
82780;BMP280;72511;45.120;20.720;2023-11-25T05:25:10;98600.41;;;4.91
82780;BMP280;72511;45.120;20.720;2023-11-25T05:35:12;98579.47;;;4.70
82780;BMP280;72511;45.120;20.720;2023-11-25T05:45:14;98529.06;;;4.97
82780;BMP280;72511;45.120;20.720;2023-11-25T05:55:16;98515.16;;;5.02
82780;BMP280;72511;45.120;20.720;2023-11-25T06:05:17;98535.69;;;4.92
82780;BMP280;72511;45.120;20.720;2023-11-25T06:15:18;98616.47;;;4.75
82780;BMP280;72511;45.120;20.720;2023-11-25T06:25:21;98610.56;;;4.83
82780;BMP280;72511;45.120;20.720;2023-11-25T06:35:24;98587.69;;;4.95
82780;BMP280;72511;45.120;20.720;2023-11-25T06:45:27;98585.00;;;4.95
82780;BMP280;72511;45.120;20.720;2023-11-25T06:55:28;98603.34;;;5.12
82780;BMP280;72511;45.120;20.720;2023-11-25T07:05:29;98604.13;;;5.41
82780;BMP280;72511;45.120;20.720;2023-11-25T07:15:31;98595.13;;;5.35
82780;BMP280;72511;45.120;20.720;2023-11-25T07:25:33;98615.34;;;5.52
82780;BMP280;72511;45.120;20.720;2023-11-25T07:35:39;98647.06;;;5.70
82780;BMP280;72511;45.120;20.720;2023-11-25T07:45:41;98628.28;;;5.70
82780;BMP280;72511;45.120;20.720;2023-11-25T07:55:45;98637.75;;;6.15
82780;BMP280;72511;45.120;20.720;2023-11-25T08:05:46;98632.41;;;6.28
82780;BMP280;72511;45.120;20.720;2023-11-25T08:15:47;98637.69;;;6.19
82780;BMP280;72511;45.120;20.720;2023-11-25T08:25:48;98610.47;;;5.92
82780;BMP280;72511;45.120;20.720;2023-11-25T08:35:50;98599.28;;;5.81
82780;BMP280;72511;45.120;20.720;2023-11-25T08:45:51;98609.69;;;5.91
82780;BMP280;72511;45.120;20.720;2023-11-25T08:55:54;98607.41;;;5.77
82780;BMP280;72511;45.120;20.720;2023-11-25T09:05:56;98611.59;;;5.78
82780;BMP280;72511;45.120;20.720;2023-11-25T09:15:57;98598.81;;;5.82
82780;BMP280;72511;45.120;20.720;2023-11-25T09:25:59;98581.75;;;5.76
82780;BMP280;72511;45.120;20.720;2023-11-25T09:36:00;98591.66;;;5.79
82780;BMP280;72511;45.120;20.720;2023-11-25T09:46:02;98617.72;;;5.79
82780;BMP280;72511;45.120;20.720;2023-11-25T09:56:05;98620.97;;;5.99
82780;BMP280;72511;45.120;20.720;2023-11-25T10:06:07;98594.34;;;5.92
82780;BMP280;72511;45.120;20.720;2023-11-25T10:16:09;98596.88;;;5.83
82780;BMP280;72511;45.120;20.720;2023-11-25T10:26:11;98588.69;;;5.74
82780;BMP280;72511;45.120;20.720;2023-11-25T10:36:17;98563.03;;;5.60
82780;BMP280;72511;45.120;20.720;2023-11-25T10:46:19;98563.25;;;5.66
82780;BMP280;72511;45.120;20.720;2023-11-25T10:56:21;98543.59;;;5.56
82780;BMP280;72511;45.120;20.720;2023-11-25T11:06:27;98549.28;;;5.71
82780;BMP280;72511;45.120;20.720;2023-11-25T11:17:14;98516.28;;;5.86
82780;BMP280;72511;45.120;20.720;2023-11-25T11:27:27;98492.31;;;5.67
82780;BMP280;72511;45.120;20.720;2023-11-25T11:37:36;98458.31;;;5.64
82780;BMP280;72511;45.120;20.720;2023-11-25T11:47:51;98453.78;;;5.61
82780;BMP280;72511;45.120;20.720;2023-11-25T11:58:20;98493.28;;;5.73
82780;BMP280;72511;45.120;20.720;2023-11-25T12:08:23;98512.84;;;5.73
82780;BMP280;72511;45.120;20.720;2023-11-25T12:18:27;98527.63;;;5.65
82780;BMP280;72511;45.120;20.720;2023-11-25T12:28:28;98537.59;;;5.65
82780;BMP280;72511;45.120;20.720;2023-11-25T12:38:30;98509.34;;;5.48
82780;BMP280;72511;45.120;20.720;2023-11-25T12:48:34;98491.75;;;5.47
82780;BMP280;72511;45.120;20.720;2023-11-25T12:58:41;98506.13;;;5.24
82780;BMP280;72511;45.120;20.720;2023-11-25T13:08:45;98503.75;;;5.14
82780;BMP280;72511;45.120;20.720;2023-11-25T13:18:47;98502.19;;;5.00
82780;BMP280;72511;45.120;20.720;2023-11-25T13:28:51;98509.03;;;5.01
82780;BMP280;72511;45.120;20.720;2023-11-25T13:38:53;98505.72;;;4.97
82780;BMP280;72511;45.120;20.720;2023-11-25T13:48:54;98491.19;;;4.95
82780;BMP280;72511;45.120;20.720;2023-11-25T13:58:55;98467.13;;;4.79
82780;BMP280;72511;45.120;20.720;2023-11-25T14:08:58;98479.28;;;4.67
82780;BMP280;72511;45.120;20.720;2023-11-25T14:19:00;98489.47;;;4.72
82780;BMP280;72511;45.120;20.720;2023-11-25T14:29:01;98485.53;;;4.77
82780;BMP280;72511;45.120;20.720;2023-11-25T14:39:03;98481.97;;;4.67
82780;BMP280;72511;45.120;20.720;2023-11-25T14:49:04;98508.84;;;4.64
82780;BMP280;72511;45.120;20.720;2023-11-25T14:59:06;98486.34;;;4.45
82780;BMP280;72511;45.120;20.720;2023-11-25T15:09:08;98506.34;;;4.41
82780;BMP280;72511;45.120;20.720;2023-11-25T15:19:09;98495.00;;;4.17
82780;BMP280;72511;45.120;20.720;2023-11-25T15:29:11;98510.66;;;4.19
82780;BMP280;72511;45.120;20.720;2023-11-25T15:39:13;98515.44;;;4.27
82780;BMP280;72511;45.120;20.720;2023-11-25T15:49:19;98522.38;;;4.25
82780;BMP280;72511;45.120;20.720;2023-11-25T15:59:20;98529.31;;;4.22
82780;BMP280;72511;45.120;20.720;2023-11-25T16:09:25;98527.44;;;4.19
82780;BMP280;72511;45.120;20.720;2023-11-25T16:19:28;98528.78;;;4.11
82780;BMP280;72511;45.120;20.720;2023-11-25T16:29:29;98521.72;;;4.01
82780;BMP280;72511;45.120;20.720;2023-11-25T16:39:30;98523.63;;;4.00
82780;BMP280;72511;45.120;20.720;2023-11-25T16:49:32;98519.91;;;4.14
82780;BMP280;72511;45.120;20.720;2023-11-25T16:59:33;98517.38;;;4.27
82780;BMP280;72511;45.120;20.720;2023-11-25T17:09:35;98517.44;;;4.23
82780;BMP280;72511;45.120;20.720;2023-11-25T17:19:38;98507.31;;;3.95
82780;BMP280;72511;45.120;20.720;2023-11-25T17:29:39;98541.16;;;4.05
82780;BMP280;72511;45.120;20.720;2023-11-25T17:39:41;98543.03;;;3.88
82780;BMP280;72511;45.120;20.720;2023-11-25T17:49:42;98565.41;;;3.94
82780;BMP280;72511;45.120;20.720;2023-11-25T17:59:44;98576.75;;;3.82
82780;BMP280;72511;45.120;20.720;2023-11-25T18:09:45;98593.09;;;3.68
82780;BMP280;72511;45.120;20.720;2023-11-25T18:19:46;98611.59;;;3.59
82780;BMP280;72511;45.120;20.720;2023-11-25T18:29:48;98625.00;;;3.56
82780;BMP280;72511;45.120;20.720;2023-11-25T18:39:49;98621.44;;;3.43
82780;BMP280;72511;45.120;20.720;2023-11-25T18:49:50;98616.31;;;3.29
82780;BMP280;72511;45.120;20.720;2023-11-25T18:59:52;98611.97;;;3.15
82780;BMP280;72511;45.120;20.720;2023-11-25T19:09:54;98625.75;;;3.14
82780;BMP280;72511;45.120;20.720;2023-11-25T19:19:55;98634.03;;;3.19
82780;BMP280;72511;45.120;20.720;2023-11-25T19:29:58;98630.19;;;3.20
82780;BMP280;72511;45.120;20.720;2023-11-25T19:40:00;98650.53;;;3.14
82780;BMP280;72511;45.120;20.720;2023-11-25T19:50:02;98633.56;;;3.01
82780;BMP280;72511;45.120;20.720;2023-11-25T20:00:03;98661.47;;;2.97
82780;BMP280;72511;45.120;20.720;2023-11-25T20:10:12;98679.63;;;2.82
82780;BMP280;72511;45.120;20.720;2023-11-25T20:20:14;98707.16;;;2.76
82780;BMP280;72511;45.120;20.720;2023-11-25T20:30:17;98710.22;;;2.78
82780;BMP280;72511;45.120;20.720;2023-11-25T20:40:20;98712.09;;;2.77
82780;BMP280;72511;45.120;20.720;2023-11-25T20:50:24;98732.81;;;2.70
82780;BMP280;72511;45.120;20.720;2023-11-25T21:00:26;98759.00;;;2.48
82780;BMP280;72511;45.120;20.720;2023-11-25T21:10:29;98758.59;;;2.13
82780;BMP280;72511;45.120;20.720;2023-11-25T21:20:30;98776.19;;;2.07
82780;BMP280;72511;45.120;20.720;2023-11-25T21:30:32;98787.75;;;1.89
82780;BMP280;72511;45.120;20.720;2023-11-25T21:40:34;98805.03;;;1.74
82780;BMP280;72511;45.120;20.720;2023-11-25T21:50:36;98805.13;;;1.53
82780;BMP280;72511;45.120;20.720;2023-11-25T22:00:37;98807.47;;;1.41
82780;BMP280;72511;45.120;20.720;2023-11-25T22:10:39;98816.66;;;1.33
82780;BMP280;72511;45.120;20.720;2023-11-25T22:20:41;98806.09;;;1.15
82780;BMP280;72511;45.120;20.720;2023-11-25T22:30:43;98800.84;;;0.98
82780;BMP280;72511;45.120;20.720;2023-11-25T22:40:44;98799.00;;;0.77
82780;BMP280;72511;45.120;20.720;2023-11-25T22:50:45;98799.00;;;0.70
82780;BMP280;72511;45.120;20.720;2023-11-25T23:00:47;98786.84;;;0.66
82780;BMP280;72511;45.120;20.720;2023-11-25T23:10:53;98780.41;;;0.60
82780;BMP280;72511;45.120;20.720;2023-11-25T23:20:56;98794.81;;;0.73
82780;BMP280;72511;45.120;20.720;2023-11-25T23:31:00;98780.75;;;0.76
82780;BMP280;72511;45.120;20.720;2023-11-25T23:41:01;98792.53;;;0.78
82780;BMP280;72511;45.120;20.720;2023-11-25T23:51:03;98792.16;;;0.76
